sensor_id;sensor_type;location;lat;lon;timestamp;pressure;altitude;pressure_sealevel;temperature;humidity
77321;BME280;66382;52.252;8.780;2024-01-25T00:01:24;101417.31;;;8.91;65.94
77321;BME280;66382;52.252;8.780;2024-01-25T00:03:50;101405.94;;;8.89;65.85
77321;BME280;66382;52.252;8.780;2024-01-25T00:06:15;101409.78;;;8.87;66.11
77321;BME280;66382;52.252;8.780;2024-01-25T00:08:41;101407.25;;;8.85;66.08
77321;BME280;66382;52.252;8.780;2024-01-25T00:11:06;101416.97;;;8.86;66.07
77321;BME280;66382;52.252;8.780;2024-01-25T00:13:33;101416.78;;;8.88;66.31
77321;BME280;66382;52.252;8.780;2024-01-25T00:15:58;101421.31;;;8.87;66.00
77321;BME280;66382;52.252;8.780;2024-01-25T00:18:24;101415.25;;;8.85;66.60
77321;BME280;66382;52.252;8.780;2024-01-25T00:20:49;101422.31;;;8.86;66.12
77321;BME280;66382;52.252;8.780;2024-01-25T00:23:15;101415.25;;;8.85;65.93
77321;BME280;66382;52.252;8.780;2024-01-25T00:25:40;101420.78;;;8.83;66.21
77321;BME280;66382;52.252;8.780;2024-01-25T00:28:06;101417.28;;;8.83;66.04
77321;BME280;66382;52.252;8.780;2024-01-25T00:30:33;101423.28;;;8.85;66.16
77321;BME280;66382;52.252;8.780;2024-01-25T00:32:58;101430.66;;;8.83;66.33
77321;BME280;66382;52.252;8.780;2024-01-25T00:35:25;101433.16;;;8.85;65.65
77321;BME280;66382;52.252;8.780;2024-01-25T00:37:51;101424.44;;;8.82;65.96
77321;BME280;66382;52.252;8.780;2024-01-25T00:40:17;101426.13;;;8.83;66.03
77321;BME280;66382;52.252;8.780;2024-01-25T00:42:44;101427.09;;;8.82;66.33
77321;BME280;66382;52.252;8.780;2024-01-25T00:45:11;101432.31;;;8.84;66.41
77321;BME280;66382;52.252;8.780;2024-01-25T00:47:39;101417.94;;;8.85;65.90
77321;BME280;66382;52.252;8.780;2024-01-25T00:50:06;101430.47;;;8.85;65.85
77321;BME280;66382;52.252;8.780;2024-01-25T00:52:32;101417.19;;;8.75;65.76
77321;BME280;66382;52.252;8.780;2024-01-25T00:54:58;101431.78;;;8.80;66.22
77321;BME280;66382;52.252;8.780;2024-01-25T00:57:24;101438.13;;;8.79;66.49
77321;BME280;66382;52.252;8.780;2024-01-25T00:59:50;101441.63;;;8.80;66.37
77321;BME280;66382;52.252;8.780;2024-01-25T01:02:15;101444.00;;;8.83;65.75
77321;BME280;66382;52.252;8.780;2024-01-25T01:04:43;101436.97;;;8.82;65.67
77321;BME280;66382;52.252;8.780;2024-01-25T01:07:09;101443.63;;;8.78;66.19
77321;BME280;66382;52.252;8.780;2024-01-25T01:09:35;101429.41;;;8.77;65.84
77321;BME280;66382;52.252;8.780;2024-01-25T01:12:00;101433.09;;;8.76;66.22
77321;BME280;66382;52.252;8.780;2024-01-25T01:14:26;101445.91;;;8.73;65.72
77321;BME280;66382;52.252;8.780;2024-01-25T01:16:51;101456.78;;;8.71;65.61
77321;BME280;66382;52.252;8.780;2024-01-25T01:19:17;101453.25;;;8.71;66.27
77321;BME280;66382;52.252;8.780;2024-01-25T01:21:44;101459.44;;;8.71;65.93
77321;BME280;66382;52.252;8.780;2024-01-25T01:24:09;101452.56;;;8.69;66.36
77321;BME280;66382;52.252;8.780;2024-01-25T01:26:35;101470.66;;;8.75;65.84
77321;BME280;66382;52.252;8.780;2024-01-25T01:29:00;101460.66;;;8.77;66.27
77321;BME280;66382;52.252;8.780;2024-01-25T01:31:26;101463.00;;;8.80;65.78
77321;BME280;66382;52.252;8.780;2024-01-25T01:33:51;101467.22;;;8.82;66.24
77321;BME280;66382;52.252;8.780;2024-01-25T01:36:17;101473.13;;;8.86;65.79
77321;BME280;66382;52.252;8.780;2024-01-25T01:38:44;101480.13;;;8.87;66.07
77321;BME280;66382;52.252;8.780;2024-01-25T01:41:09;101473.13;;;8.86;65.90
77321;BME280;66382;52.252;8.780;2024-01-25T01:43:35;101479.28;;;8.87;65.77
77321;BME280;66382;52.252;8.780;2024-01-25T01:46:04;101472.09;;;8.87;65.66
77321;BME280;66382;52.252;8.780;2024-01-25T01:48:33;101486.31;;;8.88;66.25
77321;BME280;66382;52.252;8.780;2024-01-25T01:50:59;101487.19;;;8.88;66.05
77321;BME280;66382;52.252;8.780;2024-01-25T01:53:24;101488.97;;;8.88;66.16
77321;BME280;66382;52.252;8.780;2024-01-25T01:55:51;101492.22;;;8.91;66.57
77321;BME280;66382;52.252;8.780;2024-01-25T01:58:18;101486.03;;;8.91;66.47
77321;BME280;66382;52.252;8.780;2024-01-25T02:00:44;101483.19;;;8.92;66.38
77321;BME280;66382;52.252;8.780;2024-01-25T02:03:11;101479.84;;;8.90;65.87
77321;BME280;66382;52.252;8.780;2024-01-25T02:05:36;101473.44;;;8.83;66.35
77321;BME280;66382;52.252;8.780;2024-01-25T02:08:02;101475.09;;;8.84;65.86
77321;BME280;66382;52.252;8.780;2024-01-25T02:10:28;101476.56;;;8.78;66.27
77321;BME280;66382;52.252;8.780;2024-01-25T02:12:55;101477.84;;;8.74;65.81
77321;BME280;66382;52.252;8.780;2024-01-25T02:15:20;101473.63;;;8.72;66.30
77321;BME280;66382;52.252;8.780;2024-01-25T02:17:46;101490.00;;;8.69;66.28
77321;BME280;66382;52.252;8.780;2024-01-25T02:20:11;101486.63;;;8.67;66.10
77321;BME280;66382;52.252;8.780;2024-01-25T02:22:38;101473.88;;;8.60;65.77
77321;BME280;66382;52.252;8.780;2024-01-25T02:25:04;101478.38;;;8.60;66.63
77321;BME280;66382;52.252;8.780;2024-01-25T02:27:30;101481.66;;;8.54;65.90
77321;BME280;66382;52.252;8.780;2024-01-25T02:29:55;101490.19;;;8.57;66.68
77321;BME280;66382;52.252;8.780;2024-01-25T02:32:21;101494.84;;;8.55;66.40
77321;BME280;66382;52.252;8.780;2024-01-25T02:34:46;101494.84;;;8.55;66.16
77321;BME280;66382;52.252;8.780;2024-01-25T02:37:12;101512.72;;;8.55;66.99
77321;BME280;66382;52.252;8.780;2024-01-25T02:39:39;101516.22;;;8.55;66.67
77321;BME280;66382;52.252;8.780;2024-01-25T02:42:04;101520.59;;;8.56;66.84
77321;BME280;66382;52.252;8.780;2024-01-25T02:44:30;101526.78;;;8.57;67.02
77321;BME280;66382;52.252;8.780;2024-01-25T02:46:55;101529.31;;;8.58;65.97
77321;BME280;66382;52.252;8.780;2024-01-25T02:49:21;101535.63;;;8.57;66.39
77321;BME280;66382;52.252;8.780;2024-01-25T02:51:46;101525.56;;;8.51;66.65
77321;BME280;66382;52.252;8.780;2024-01-25T02:54:12;101532.69;;;8.60;66.42
77321;BME280;66382;52.252;8.780;2024-01-25T02:56:38;101525.34;;;8.63;66.48
77321;BME280;66382;52.252;8.780;2024-01-25T02:59:04;101529.16;;;8.60;66.31
77321;BME280;66382;52.252;8.780;2024-01-25T03:01:37;101524.94;;;8.57;66.23
77321;BME280;66382;52.252;8.780;2024-01-25T03:04:03;101529.31;;;8.58;66.38
77321;BME280;66382;52.252;8.780;2024-01-25T03:06:28;101530.16;;;8.59;66.23
77321;BME280;66382;52.252;8.780;2024-01-25T03:08:54;101539.00;;;8.59;66.76
77321;BME280;66382;52.252;8.780;2024-01-25T03:11:19;101530.47;;;8.56;65.77
77321;BME280;66382;52.252;8.780;2024-01-25T03:13:46;101520.53;;;8.48;66.22
77321;BME280;66382;52.252;8.780;2024-01-25T03:16:11;101525.38;;;8.53;65.94
77321;BME280;66382;52.252;8.780;2024-01-25T03:18:37;101522.94;;;8.42;66.51
77321;BME280;66382;52.252;8.780;2024-01-25T03:21:03;101522.78;;;8.43;65.86
77321;BME280;66382;52.252;8.780;2024-01-25T03:23:28;101519.00;;;8.36;65.83
77321;BME280;66382;52.252;8.780;2024-01-25T03:25:53;101524.19;;;8.37;66.37
77321;BME280;66382;52.252;8.780;2024-01-25T03:28:19;101518.16;;;8.35;66.60
77321;BME280;66382;52.252;8.780;2024-01-25T03:30:46;101522.81;;;8.33;66.14
77321;BME280;66382;52.252;8.780;2024-01-25T03:33:11;101531.81;;;8.32;66.58
77321;BME280;66382;52.252;8.780;2024-01-25T03:35:37;101509.91;;;8.29;65.98
77321;BME280;66382;52.252;8.780;2024-01-25T03:38:02;101527.06;;;8.26;66.64
77321;BME280;66382;52.252;8.780;2024-01-25T03:40:28;101517.41;;;8.15;66.18
77321;BME280;66382;52.252;8.780;2024-01-25T03:42:53;101525.41;;;8.15;66.35
77321;BME280;66382;52.252;8.780;2024-01-25T03:45:19;101524.88;;;8.12;66.59
77321;BME280;66382;52.252;8.780;2024-01-25T03:47:45;101527.69;;;8.10;66.06
77321;BME280;66382;52.252;8.780;2024-01-25T03:50:11;101533.47;;;8.06;65.27
77321;BME280;66382;52.252;8.780;2024-01-25T03:52:36;101543.91;;;7.99;65.33
77321;BME280;66382;52.252;8.780;2024-01-25T03:55:02;101542.66;;;7.93;65.89
77321;BME280;66382;52.252;8.780;2024-01-25T03:57:27;101525.72;;;7.75;66.30
77321;BME280;66382;52.252;8.780;2024-01-25T03:59:53;101542.84;;;7.82;65.90
77321;BME280;66382;52.252;8.780;2024-01-25T04:02:18;101559.66;;;7.92;66.89
77321;BME280;66382;52.252;8.780;2024-01-25T04:04:45;101561.34;;;7.93;66.89
77321;BME280;66382;52.252;8.780;2024-01-25T04:07:10;101556.88;;;7.94;65.88
77321;BME280;66382;52.252;8.780;2024-01-25T04:09:36;101556.88;;;7.94;67.04
77321;BME280;66382;52.252;8.780;2024-01-25T04:12:01;101555.47;;;7.90;66.47
77321;BME280;66382;52.252;8.780;2024-01-25T04:14:27;101565.53;;;7.96;66.12
77321;BME280;66382;52.252;8.780;2024-01-25T04:16:52;101555.06;;;7.85;66.16
77321;BME280;66382;52.252;8.780;2024-01-25T04:19:18;101550.44;;;7.77;66.20
77321;BME280;66382;52.252;8.780;2024-01-25T04:21:45;101559.56;;;7.84;66.18
77321;BME280;66382;52.252;8.780;2024-01-25T04:24:10;101553.25;;;7.75;66.84
77321;BME280;66382;52.252;8.780;2024-01-25T04:26:35;101563.78;;;7.77;66.42
77321;BME280;66382;52.252;8.780;2024-01-25T04:29:01;101565.06;;;7.73;66.49
77321;BME280;66382;52.252;8.780;2024-01-25T04:31:26;101562.50;;;7.71;66.89
77321;BME280;66382;52.252;8.780;2024-01-25T04:33:52;101560.84;;;7.70;66.15
77321;BME280;66382;52.252;8.780;2024-01-25T04:36:17;101570.97;;;7.67;66.98
77321;BME280;66382;52.252;8.780;2024-01-25T04:38:44;101576.31;;;7.67;66.11
77321;BME280;66382;52.252;8.780;2024-01-25T04:41:10;101581.66;;;7.67;67.17
77321;BME280;66382;52.252;8.780;2024-01-25T04:43:36;101583.31;;;7.68;66.95
77321;BME280;66382;52.252;8.780;2024-01-25T04:46:02;101584.47;;;7.65;66.72
77321;BME280;66382;52.252;8.780;2024-01-25T04:48:27;101587.41;;;7.72;66.78
77321;BME280;66382;52.252;8.780;2024-01-25T04:50:52;101586.53;;;7.71;66.38
77321;BME280;66382;52.252;8.780;2024-01-25T04:53:18;101590.78;;;7.74;66.91
77321;BME280;66382;52.252;8.780;2024-01-25T04:55:45;101585.28;;;7.75;66.71
77321;BME280;66382;52.252;8.780;2024-01-25T04:58:10;101585.56;;;7.72;66.35
77321;BME280;66382;52.252;8.780;2024-01-25T05:00:36;101590.06;;;7.72;67.65
77321;BME280;66382;52.252;8.780;2024-01-25T05:03:01;101579.81;;;7.67;66.84
77321;BME280;66382;52.252;8.780;2024-01-25T05:05:26;101598.63;;;7.75;66.62
77321;BME280;66382;52.252;8.780;2024-01-25T05:07:52;101600.16;;;7.78;67.33
77321;BME280;66382;52.252;8.780;2024-01-25T05:10:17;101591.19;;;7.79;67.68
77321;BME280;66382;52.252;8.780;2024-01-25T05:12:44;101602.00;;;7.78;67.00
77321;BME280;66382;52.252;8.780;2024-01-25T05:15:10;101607.47;;;7.76;66.72
77321;BME280;66382;52.252;8.780;2024-01-25T05:17:35;101602.41;;;7.73;66.97
77321;BME280;66382;52.252;8.780;2024-01-25T05:20:01;101616.06;;;7.70;67.25
77321;BME280;66382;52.252;8.780;2024-01-25T05:22:26;101596.97;;;7.65;67.05
77321;BME280;66382;52.252;8.780;2024-01-25T05:24:52;101609.88;;;7.69;67.28
77321;BME280;66382;52.252;8.780;2024-01-25T05:27:17;101619.03;;;7.67;66.34
77321;BME280;66382;52.252;8.780;2024-01-25T05:29:44;101612.28;;;7.63;66.64
77321;BME280;66382;52.252;8.780;2024-01-25T05:32:13;101616.63;;;7.64;67.62
77321;BME280;66382;52.252;8.780;2024-01-25T05:34:39;101623.78;;;7.63;66.74
77321;BME280;66382;52.252;8.780;2024-01-25T05:37:04;101614.22;;;7.61;67.04
77321;BME280;66382;52.252;8.780;2024-01-25T05:39:30;101614.09;;;7.62;66.73
77321;BME280;66382;52.252;8.780;2024-01-25T05:41:55;101615.22;;;7.60;67.62
77321;BME280;66382;52.252;8.780;2024-01-25T05:44:21;101617.75;;;7.51;67.42
77321;BME280;66382;52.252;8.780;2024-01-25T05:46:47;101624.91;;;7.51;67.37
77321;BME280;66382;52.252;8.780;2024-01-25T05:49:13;101623.25;;;7.50;66.94
77321;BME280;66382;52.252;8.780;2024-01-25T05:51:38;101634.63;;;7.52;67.80
77321;BME280;66382;52.252;8.780;2024-01-25T05:54:04;101626.31;;;7.45;67.95
77321;BME280;66382;52.252;8.780;2024-01-25T05:56:29;101630.97;;;7.53;67.29
77321;BME280;66382;52.252;8.780;2024-01-25T05:58:55;101635.28;;;7.54;66.93
77321;BME280;66382;52.252;8.780;2024-01-25T06:01:20;101630.66;;;7.56;67.87
77321;BME280;66382;52.252;8.780;2024-01-25T06:03:47;101640.38;;;7.57;67.01
77321;BME280;66382;52.252;8.780;2024-01-25T06:06:13;101635.16;;;7.56;66.80
77321;BME280;66382;52.252;8.780;2024-01-25T06:08:38;101630.41;;;7.49;67.98
77321;BME280;66382;52.252;8.780;2024-01-25T06:11:04;101634.88;;;7.49;67.31
77321;BME280;66382;52.252;8.780;2024-01-25T06:13:30;101634.47;;;7.44;66.96
77321;BME280;66382;52.252;8.780;2024-01-25T06:15:56;101639.78;;;7.44;67.11
77321;BME280;66382;52.252;8.780;2024-01-25T06:18:21;101630.81;;;7.45;67.41
77321;BME280;66382;52.252;8.780;2024-01-25T06:20:48;101638.66;;;7.46;67.47
77321;BME280;66382;52.252;8.780;2024-01-25T06:23:14;101650.63;;;7.52;67.68
77321;BME280;66382;52.252;8.780;2024-01-25T06:25:39;101654.13;;;7.52;68.30
77321;BME280;66382;52.252;8.780;2024-01-25T06:28:05;101655.25;;;7.50;67.61
77321;BME280;66382;52.252;8.780;2024-01-25T06:30:30;101660.19;;;7.54;67.70
77321;BME280;66382;52.252;8.780;2024-01-25T06:32:56;101661.97;;;7.54;68.20
77321;BME280;66382;52.252;8.780;2024-01-25T06:35:21;101663.97;;;7.52;68.05
77321;BME280;66382;52.252;8.780;2024-01-25T06:37:48;101653.13;;;7.44;68.05
77321;BME280;66382;52.252;8.780;2024-01-25T06:40:14;101662.44;;;7.49;67.17
77321;BME280;66382;52.252;8.780;2024-01-25T06:42:39;101661.00;;;7.45;67.33
77321;BME280;66382;52.252;8.780;2024-01-25T06:45:05;101653.72;;;7.38;67.68
77321;BME280;66382;52.252;8.780;2024-01-25T06:47:30;101661.13;;;7.44;68.26
77321;BME280;66382;52.252;8.780;2024-01-25T06:49:56;101657.75;;;7.42;67.77
77321;BME280;66382;52.252;8.780;2024-01-25T06:52:21;101670.69;;;7.37;67.50
77321;BME280;66382;52.252;8.780;2024-01-25T06:54:48;101657.06;;;7.30;67.56
77321;BME280;66382;52.252;8.780;2024-01-25T06:57:14;101661.56;;;7.29;67.43
77321;BME280;66382;52.252;8.780;2024-01-25T06:59:39;101670.66;;;7.27;67.95
77321;BME280;66382;52.252;8.780;2024-01-25T07:02:05;101678.00;;;7.25;67.73
77321;BME280;66382;52.252;8.780;2024-01-25T07:04:30;101683.56;;;7.22;67.47
77321;BME280;66382;52.252;8.780;2024-01-25T07:06:56;101680.34;;;7.18;67.78
77321;BME280;66382;52.252;8.780;2024-01-25T07:09:21;101684.97;;;7.16;67.97
77321;BME280;66382;52.252;8.780;2024-01-25T07:11:48;101680.19;;;7.10;68.01
77321;BME280;66382;52.252;8.780;2024-01-25T07:14:13;101689.47;;;7.16;67.80
77321;BME280;66382;52.252;8.780;2024-01-25T07:16:39;101694.22;;;7.12;67.70
77321;BME280;66382;52.252;8.780;2024-01-25T07:19:04;101698.88;;;7.10;67.52
77321;BME280;66382;52.252;8.780;2024-01-25T07:21:30;101707.56;;;7.12;67.91
77321;BME280;66382;52.252;8.780;2024-01-25T07:23:55;101701.94;;;7.05;68.18
77321;BME280;66382;52.252;8.780;2024-01-25T07:26:21;101706.59;;;7.13;67.87
77321;BME280;66382;52.252;8.780;2024-01-25T07:28:47;101708.00;;;7.17;68.63
77321;BME280;66382;52.252;8.780;2024-01-25T07:31:13;101699.72;;;7.10;67.82
77321;BME280;66382;52.252;8.780;2024-01-25T07:33:38;101712.78;;;7.23;68.39
77321;BME280;66382;52.252;8.780;2024-01-25T07:36:05;101702.25;;;7.22;67.93
77321;BME280;66382;52.252;8.780;2024-01-25T07:38:30;101707.72;;;7.20;68.72
77321;BME280;66382;52.252;8.780;2024-01-25T07:40:55;101677.06;;;6.95;67.73
77321;BME280;66382;52.252;8.780;2024-01-25T07:43:21;101706.31;;;7.16;68.40
77321;BME280;66382;52.252;8.780;2024-01-25T07:45:48;101709.13;;;7.15;68.09
77321;BME280;66382;52.252;8.780;2024-01-25T07:48:13;101704.63;;;7.15;68.38
77321;BME280;66382;52.252;8.780;2024-01-25T07:50:39;101705.47;;;7.16;68.12
77321;BME280;66382;52.252;8.780;2024-01-25T07:53:04;101703.94;;;7.13;68.68
77321;BME280;66382;52.252;8.780;2024-01-25T07:55:29;101704.88;;;7.12;68.32
77321;BME280;66382;52.252;8.780;2024-01-25T07:57:55;101702.09;;;7.14;67.91
77321;BME280;66382;52.252;8.780;2024-01-25T08:00:21;101708.25;;;7.14;68.79
77321;BME280;66382;52.252;8.780;2024-01-25T08:02:47;101702.94;;;7.14;67.66
77321;BME280;66382;52.252;8.780;2024-01-25T08:05:13;101702.94;;;7.14;68.15
77321;BME280;66382;52.252;8.780;2024-01-25T08:07:38;101704.63;;;7.15;68.33
77321;BME280;66382;52.252;8.780;2024-01-25T08:10:05;101679.47;;;6.98;68.12
77321;BME280;66382;52.252;8.780;2024-01-25T08:12:30;101722.31;;;7.16;67.97
77321;BME280;66382;52.252;8.780;2024-01-25T08:14:56;101711.09;;;7.13;68.92
77321;BME280;66382;52.252;8.780;2024-01-25T08:17:21;101721.06;;;7.20;68.90
77321;BME280;66382;52.252;8.780;2024-01-25T08:19:48;101723.47;;;7.23;68.14
77321;BME280;66382;52.252;8.780;2024-01-25T08:22:14;101733.72;;;7.28;68.73
77321;BME280;66382;52.252;8.780;2024-01-25T08:24:39;101737.94;;;7.30;69.00
77321;BME280;66382;52.252;8.780;2024-01-25T08:27:05;101729.81;;;7.32;68.03
77321;BME280;66382;52.252;8.780;2024-01-25T08:29:30;101735.69;;;7.36;68.52
77321;BME280;66382;52.252;8.780;2024-01-25T08:31:56;101738.78;;;7.41;67.99
77321;BME280;66382;52.252;8.780;2024-01-25T08:34:21;101733.34;;;7.42;68.45
77321;BME280;66382;52.252;8.780;2024-01-25T08:36:48;101747.66;;;7.51;67.94
77321;BME280;66382;52.252;8.780;2024-01-25T08:39:14;101743.16;;;7.51;68.41
77321;BME280;66382;52.252;8.780;2024-01-25T08:41:39;101746.53;;;7.53;68.37
77321;BME280;66382;52.252;8.780;2024-01-25T08:44:05;101740.66;;;7.50;68.46
77321;BME280;66382;52.252;8.780;2024-01-25T08:46:30;101747.25;;;7.56;68.32
77321;BME280;66382;52.252;8.780;2024-01-25T08:48:55;101750.03;;;7.54;68.35
77321;BME280;66382;52.252;8.780;2024-01-25T08:51:21;101755.25;;;7.56;67.84
77321;BME280;66382;52.252;8.780;2024-01-25T08:53:48;101766.94;;;7.54;68.07
77321;BME280;66382;52.252;8.780;2024-01-25T08:56:13;101773.09;;;7.55;68.07
77321;BME280;66382;52.252;8.780;2024-01-25T08:58:39;101771.97;;;7.58;68.89
77321;BME280;66382;52.252;8.780;2024-01-25T09:01:04;101773.25;;;7.63;69.02
77321;BME280;66382;52.252;8.780;2024-01-25T09:03:30;101758.09;;;7.73;68.66
77321;BME280;66382;52.252;8.780;2024-01-25T09:05:55;101767.38;;;7.89;68.12
77321;BME280;66382;52.252;8.780;2024-01-25T09:08:21;101773.56;;;7.99;68.78
77321;BME280;66382;52.252;8.780;2024-01-25T09:10:47;101762.72;;;8.10;68.40
77321;BME280;66382;52.252;8.780;2024-01-25T09:13:13;101758.50;;;8.27;69.13
77321;BME280;66382;52.252;8.780;2024-01-25T09:15:38;101764.28;;;8.42;68.81
77321;BME280;66382;52.252;8.780;2024-01-25T09:18:04;101768.59;;;8.53;68.18
77321;BME280;66382;52.252;8.780;2024-01-25T09:20:30;101767.91;;;8.60;68.13
77321;BME280;66382;52.252;8.780;2024-01-25T09:22:55;101769.59;;;8.61;67.67
77321;BME280;66382;52.252;8.780;2024-01-25T09:25:21;101766.22;;;8.59;68.01
77321;BME280;66382;52.252;8.780;2024-01-25T09:27:48;101773.94;;;8.63;67.56
77321;BME280;66382;52.252;8.780;2024-01-25T09:30:15;101775.03;;;8.79;68.30
77321;BME280;66382;52.252;8.780;2024-01-25T09:32:41;101771.44;;;8.98;68.28
77321;BME280;66382;52.252;8.780;2024-01-25T09:35:07;101767.44;;;9.12;68.36
77321;BME280;66382;52.252;8.780;2024-01-25T09:37:32;101770.88;;;9.32;68.05
77321;BME280;66382;52.252;8.780;2024-01-25T09:39:58;101784.03;;;9.43;67.30
77321;BME280;66382;52.252;8.780;2024-01-25T09:42:23;101794.16;;;9.50;67.23
77321;BME280;66382;52.252;8.780;2024-01-25T09:44:50;101798.44;;;9.42;67.04
77321;BME280;66382;52.252;8.780;2024-01-25T09:47:17;101806.06;;;9.37;67.09
77321;BME280;66382;52.252;8.780;2024-01-25T09:49:42;101801.16;;;9.33;67.06
77321;BME280;66382;52.252;8.780;2024-01-25T09:52:12;101811.91;;;9.23;66.81
77321;BME280;66382;52.252;8.780;2024-01-25T09:54:38;101810.09;;;9.14;66.80
77321;BME280;66382;52.252;8.780;2024-01-25T09:57:08;101789.59;;;8.95;66.62
77321;BME280;66382;52.252;8.780;2024-01-25T09:59:38;101814.38;;;8.97;66.63
77321;BME280;66382;52.252;8.780;2024-01-25T10:02:05;101817.06;;;8.87;66.68
77321;BME280;66382;52.252;8.780;2024-01-25T10:04:30;101815.81;;;8.91;67.00
77321;BME280;66382;52.252;8.780;2024-01-25T10:06:56;101815.50;;;8.94;67.54
77321;BME280;66382;52.252;8.780;2024-01-25T10:09:21;101820.31;;;8.91;66.79
77321;BME280;66382;52.252;8.780;2024-01-25T10:11:47;101824.25;;;8.87;66.97
77321;BME280;66382;52.252;8.780;2024-01-25T10:14:12;101818.47;;;8.91;67.46
77321;BME280;66382;52.252;8.780;2024-01-25T10:16:38;101821.69;;;8.95;67.11
77321;BME280;66382;52.252;8.780;2024-01-25T10:19:08;101830.72;;;8.94;66.50
77321;BME280;66382;52.252;8.780;2024-01-25T10:21:35;101828.19;;;8.92;67.22
77321;BME280;66382;52.252;8.780;2024-01-25T10:24:01;101826.22;;;8.94;67.07
77321;BME280;66382;52.252;8.780;2024-01-25T10:26:26;101827.03;;;8.95;66.92
77321;BME280;66382;52.252;8.780;2024-01-25T10:28:52;101832.56;;;8.93;67.15
77321;BME280;66382;52.252;8.780;2024-01-25T10:31:18;101829.06;;;8.93;67.22
77321;BME280;66382;52.252;8.780;2024-01-25T10:33:45;101817.91;;;8.88;67.07
77321;BME280;66382;52.252;8.780;2024-01-25T10:36:13;101826.63;;;8.90;66.78
77321;BME280;66382;52.252;8.780;2024-01-25T10:38:42;101826.09;;;8.86;67.13
77321;BME280;66382;52.252;8.780;2024-01-25T10:41:10;101834.13;;;8.86;66.82
77321;BME280;66382;52.252;8.780;2024-01-25T10:43:36;101828.91;;;8.85;66.88
77321;BME280;66382;52.252;8.780;2024-01-25T10:46:02;101838.63;;;8.86;66.93
77321;BME280;66382;52.252;8.780;2024-01-25T10:48:28;101835.25;;;8.83;66.67
77321;BME280;66382;52.252;8.780;2024-01-25T10:50:54;101841.31;;;8.86;67.20
77321;BME280;66382;52.252;8.780;2024-01-25T10:53:22;101834.81;;;8.88;67.33
77321;BME280;66382;52.252;8.780;2024-01-25T10:55:49;101828.34;;;8.91;67.06
77321;BME280;66382;52.252;8.780;2024-01-25T10:58:15;101828.03;;;8.94;66.67
77321;BME280;66382;52.252;8.780;2024-01-25T11:00:41;101799.91;;;8.90;67.35
77321;BME280;66382;52.252;8.780;2024-01-25T11:03:06;101811.38;;;9.10;67.49
77321;BME280;66382;52.252;8.780;2024-01-25T11:05:32;101819.22;;;9.21;67.20
77321;BME280;66382;52.252;8.780;2024-01-25T11:07:58;101811.69;;;9.34;67.40
77321;BME280;66382;52.252;8.780;2024-01-25T11:10:25;101814.75;;;9.39;66.78
77321;BME280;66382;52.252;8.780;2024-01-25T11:12:51;101824.06;;;9.45;66.67
77321;BME280;66382;52.252;8.780;2024-01-25T11:15:21;101818.31;;;9.40;66.63
77321;BME280;66382;52.252;8.780;2024-01-25T11:17:51;101829.88;;;9.31;66.51
77321;BME280;66382;52.252;8.780;2024-01-25T11:20:20;101827.94;;;9.23;66.29
77321;BME280;66382;52.252;8.780;2024-01-25T11:22:45;101827.56;;;9.18;66.56
77321;BME280;66382;52.252;8.780;2024-01-25T11:25:13;101819.25;;;9.11;66.52
77321;BME280;66382;52.252;8.780;2024-01-25T11:27:40;101817.72;;;9.09;66.29
77321;BME280;66382;52.252;8.780;2024-01-25T11:30:08;101816.03;;;9.08;66.59
77321;BME280;66382;52.252;8.780;2024-01-25T11:32:33;101819.41;;;9.10;66.72
77321;BME280;66382;52.252;8.780;2024-01-25T11:34:59;101817.59;;;9.10;66.63
77321;BME280;66382;52.252;8.780;2024-01-25T11:37:24;101809.56;;;9.10;66.24
77321;BME280;66382;52.252;8.780;2024-01-25T11:39:51;101796.63;;;9.06;66.53
77321;BME280;66382;52.252;8.780;2024-01-25T11:42:16;101776.22;;;8.95;66.82
77321;BME280;66382;52.252;8.780;2024-01-25T11:44:43;101790.44;;;9.05;66.46
77321;BME280;66382;52.252;8.780;2024-01-25T11:47:09;101787.75;;;9.05;66.25
77321;BME280;66382;52.252;8.780;2024-01-25T11:49:34;101780.28;;;9.09;66.56
77321;BME280;66382;52.252;8.780;2024-01-25T11:52:00;101772.69;;;9.04;66.17
77321;BME280;66382;52.252;8.780;2024-01-25T11:54:25;101790.13;;;9.08;66.19
77321;BME280;66382;52.252;8.780;2024-01-25T11:56:51;101796.06;;;9.02;66.07
77321;BME280;66382;52.252;8.780;2024-01-25T11:59:17;101793.81;;;8.97;65.96
77321;BME280;66382;52.252;8.780;2024-01-25T12:01:44;101794.13;;;8.94;66.17
77321;BME280;66382;52.252;8.780;2024-01-25T12:04:10;101803.69;;;8.97;66.68
77321;BME280;66382;52.252;8.780;2024-01-25T12:06:35;101794.09;;;9.04;66.44
77321;BME280;66382;52.252;8.780;2024-01-25T12:09:08;101789.97;;;9.10;66.98
77321;BME280;66382;52.252;8.780;2024-01-25T12:11:34;101778.03;;;9.04;66.24
77321;BME280;66382;52.252;8.780;2024-01-25T12:13:59;101788.00;;;9.12;66.34
77321;BME280;66382;52.252;8.780;2024-01-25T12:16:25;101788.00;;;9.12;66.67
77321;BME280;66382;52.252;8.780;2024-01-25T12:18:53;101791.66;;;9.11;66.35
77321;BME280;66382;52.252;8.780;2024-01-25T12:21:19;101786.75;;;9.06;66.56
77321;BME280;66382;52.252;8.780;2024-01-25T12:23:44;101801.38;;;9.12;66.82
77321;BME280;66382;52.252;8.780;2024-01-25T12:26:10;101798.38;;;9.15;66.60
77321;BME280;66382;52.252;8.780;2024-01-25T12:28:37;101794.00;;;9.23;66.81
77321;BME280;66382;52.252;8.780;2024-01-25T12:31:03;101793.25;;;9.31;66.93
77321;BME280;66382;52.252;8.780;2024-01-25T12:33:30;101787.47;;;9.36;66.66
77321;BME280;66382;52.252;8.780;2024-01-25T12:35:57;101791.81;;;9.37;66.48
77321;BME280;66382;52.252;8.780;2024-01-25T12:38:23;101779.97;;;9.39;66.75
77321;BME280;66382;52.252;8.780;2024-01-25T12:40:49;101769.97;;;9.41;66.81
77321;BME280;66382;52.252;8.780;2024-01-25T12:43:16;101776.72;;;9.45;66.43
77321;BME280;66382;52.252;8.780;2024-01-25T12:45:42;101771.78;;;9.41;66.46
77321;BME280;66382;52.252;8.780;2024-01-25T12:48:08;101769.88;;;9.33;66.19
77321;BME280;66382;52.252;8.780;2024-01-25T12:50:34;101783.34;;;9.41;66.52
77321;BME280;66382;52.252;8.780;2024-01-25T12:53:01;101763.44;;;9.26;65.75